Plain City, Utah
Current Conditions -  °F | °C
As of 4:53 PM on Wednesday 28 Jan 2015 (Local Time) from KOGD Reporting Station
Overcast Overcast  
Wind Chill: 43°   Ceiling: 5500
Heat Index: 45°   Visibility: 10mi
Dew Point: 37°   Wind: 5mph
Humidity: 74%   Direction: 300°WNW
Pressure: 30.3"   Gusts: NA
Location:  41.2701°N, 112.135°W
Report Text: KOGD 282353Z 30004KT 10SM OVC055 07/03 A3030 RMK AO2 SLP253 60000 T00720028 10078 20067 53002
Loading
Personal Weather Stations






























Interactive Weather Map New forecast layout! Learn more

10-Day Weather Forecast

Advertisements
Track Severe Weather on mobile